createdAt,value
2022-08-19T00:00:12.135Z,100.00
2022-08-19T00:01:14.555Z,100.00
2022-08-19T00:02:28.531Z,100.00
2022-08-19T00:03:30.772Z,100.00
2022-08-19T00:04:37.252Z,100.00
2022-08-19T00:05:41.436Z,100.00
2022-08-19T00:06:45.884Z,100.00
2022-08-19T00:07:49.747Z,100.00
2022-08-19T00:08:52.343Z,100.00
2022-08-19T00:09:54.747Z,100.00
2022-08-19T00:10:59.119Z,100.00
2022-08-19T00:12:02.178Z,100.00
2022-08-19T00:13:05.218Z,100.00
2022-08-19T00:14:10.725Z,100.00
2022-08-19T00:15:16.428Z,100.00
2022-08-19T00:16:26.147Z,100.00
2022-08-19T00:17:28.899Z,100.00
2022-08-19T00:18:31.953Z,100.00
2022-08-19T00:19:35.333Z,100.00
2022-08-19T00:20:41.352Z,100.00
2022-08-19T00:21:44.244Z,100.00
2022-08-19T00:22:48.821Z,100.00
2022-08-19T00:23:51.402Z,100.00
2022-08-19T00:24:53.575Z,100.00
2022-08-19T00:25:57.335Z,100.00
2022-08-19T00:27:25.657Z,100.00
2022-08-19T00:28:22.138Z,100.00
2022-08-19T00:29:26.061Z,100.00
2022-08-19T00:30:28.964Z,100.00
2022-08-19T00:31:32.125Z,100.00
2022-08-19T00:32:35.293Z,100.00
2022-08-19T00:33:37.806Z,100.00
2022-08-19T00:34:40.192Z,100.00
2022-08-19T00:35:42.375Z,100.00
2022-08-19T00:36:44.738Z,100.00
2022-08-19T00:37:49.210Z,100.00
2022-08-19T00:38:53.847Z,100.00
2022-08-19T00:39:56.941Z,100.00
2022-08-19T00:40:59.698Z,100.00
2022-08-19T00:42:02.859Z,100.00
2022-08-19T00:43:10.893Z,100.00
2022-08-19T00:44:28.379Z,100.00
2022-08-19T00:45:36.567Z,100.00
2022-08-19T00:46:42.058Z,100.00
2022-08-19T00:47:45.942Z,100.00
2022-08-19T00:48:48.122Z,100.00
2022-08-19T00:49:54.988Z,100.00
2022-08-19T00:50:57.702Z,100.00
2022-08-19T00:52:13.524Z,100.00
2022-08-19T00:53:21.187Z,100.00
2022-08-19T00:54:29.125Z,100.00
2022-08-19T00:55:34.582Z,100.00
2022-08-19T00:56:37.790Z,100.00
2022-08-19T00:57:45.607Z,100.00
2022-08-19T00:58:47.806Z,100.00
2022-08-19T01:00:01.448Z,100.00
2022-08-19T01:01:05.536Z,100.00
2022-08-19T01:02:08.300Z,100.00
2022-08-19T01:03:14.355Z,100.00
2022-08-19T01:04:16.505Z,100.00
2022-08-19T01:05:23.287Z,100.00
2022-08-19T01:06:27.271Z,100.00
2022-08-19T01:07:35.958Z,100.00
2022-08-19T01:08:40.685Z,100.00
2022-08-19T01:09:43.010Z,100.00
2022-08-19T01:10:54.584Z,100.00
2022-08-19T01:11:57.262Z,100.00
2022-08-19T01:13:01.906Z,100.00
2022-08-19T01:14:05.090Z,100.00
2022-08-19T01:15:10.988Z,100.00
2022-08-19T01:16:13.962Z,100.00
2022-08-19T01:17:17.159Z,100.00
2022-08-19T01:18:21.597Z,100.00
2022-08-19T01:19:44.285Z,100.00
2022-08-19T01:20:47.654Z,100.00
2022-08-19T01:22:20.022Z,100.00
2022-08-19T01:23:43.367Z,100.00
2022-08-19T01:24:49.825Z,100.00
2022-08-19T01:25:54.620Z,100.00
2022-08-19T01:26:58.198Z,100.00
2022-08-19T01:28:03.050Z,100.00
2022-08-19T01:29:13.252Z,100.00
2022-08-19T01:30:28.103Z,100.00
2022-08-19T01:31:33.453Z,100.00
2022-08-19T01:32:35.991Z,100.00
2022-08-19T01:33:39.184Z,100.00
2022-08-19T01:34:41.877Z,100.00
2022-08-19T01:35:44.251Z,100.00
2022-08-19T01:36:48.343Z,100.00
2022-08-19T01:37:59.546Z,100.00
2022-08-19T01:39:06.451Z,100.00
2022-08-19T01:40:09.727Z,100.00
2022-08-19T01:41:13.381Z,100.00
2022-08-19T01:42:15.670Z,100.00
2022-08-19T01:43:19.990Z,100.00
2022-08-19T01:44:24.959Z,100.00
2022-08-19T01:45:29.133Z,100.00
2022-08-19T01:46:33.057Z,100.00
2022-08-19T01:47:38.766Z,100.00
2022-08-19T01:48:43.275Z,100.00
2022-08-19T01:49:45.440Z,100.00
2022-08-19T01:50:48.663Z,100.00
2022-08-19T01:51:54.712Z,100.00
2022-08-19T01:53:06.210Z,100.00
2022-08-19T01:54:12.487Z,100.00
2022-08-19T01:55:19.400Z,100.00
2022-08-19T01:56:21.759Z,100.00
2022-08-19T01:57:24.108Z,100.00
2022-08-19T01:58:33.442Z,100.00
2022-08-19T01:59:37.421Z,100.00
2022-08-19T02:00:40.034Z,100.00
2022-08-19T02:01:42.341Z,100.00
2022-08-19T02:02:44.716Z,100.00
2022-08-19T02:03:47.055Z,100.00
2022-08-19T02:04:49.589Z,100.00
2022-08-19T02:06:00.579Z,100.00
2022-08-19T02:07:02.699Z,100.00
2022-08-19T02:08:05.526Z,100.00
2022-08-19T02:09:09.266Z,100.00
2022-08-19T02:10:16.549Z,100.00
2022-08-19T02:11:21.945Z,100.00
2022-08-19T02:12:24.266Z,100.00
2022-08-19T02:13:27.908Z,100.00
2022-08-19T02:14:30.085Z,100.00
2022-08-19T02:15:33.036Z,100.00
2022-08-19T02:16:37.149Z,100.00
2022-08-19T02:17:40.121Z,100.00
2022-08-19T02:18:42.297Z,100.00
2022-08-19T02:19:44.519Z,100.00
2022-08-19T02:20:48.430Z,100.00
2022-08-19T02:21:52.451Z,100.00
2022-08-19T02:22:54.789Z,100.00
2022-08-19T02:23:57.841Z,100.00
2022-08-19T02:25:00.023Z,100.00
2022-08-19T02:26:02.169Z,100.00
2022-08-19T02:27:05.725Z,100.00
2022-08-19T02:28:08.949Z,100.00
2022-08-19T02:29:11.205Z,100.00
2022-08-19T02:30:17.065Z,100.00
2022-08-19T02:31:21.848Z,100.00
2022-08-19T02:32:23.986Z,100.00
2022-08-19T02:33:26.183Z,100.00
2022-08-19T02:34:28.407Z,100.00
2022-08-19T02:35:30.596Z,100.00
2022-08-19T02:36:32.773Z,100.00
2022-08-19T02:37:54.368Z,100.00
2022-08-19T02:38:56.631Z,100.00
2022-08-19T02:39:59.718Z,100.00
2022-08-19T02:41:11.911Z,100.00
2022-08-19T02:42:14.073Z,100.00
2022-08-19T02:43:16.609Z,100.00
2022-08-19T02:44:30.847Z,100.00
2022-08-19T02:45:40.425Z,100.00
2022-08-19T02:46:44.397Z,100.00
2022-08-19T02:47:46.607Z,100.00
2022-08-19T02:48:51.407Z,100.00
2022-08-19T02:49:53.594Z,100.00
2022-08-19T02:50:56.504Z,100.00
2022-08-19T02:51:58.899Z,100.00
2022-08-19T02:53:01.201Z,100.00
2022-08-19T02:54:05.037Z,100.00
2022-08-19T02:55:08.164Z,100.00
2022-08-19T02:56:10.337Z,100.00
2022-08-19T02:57:12.516Z,100.00
2022-08-19T02:58:15.849Z,100.00
2022-08-19T02:59:18.011Z,100.00
2022-08-19T03:00:25.108Z,100.00
2022-08-19T03:01:33.239Z,100.00
2022-08-19T03:02:35.506Z,100.00
2022-08-19T03:03:38.679Z,100.00
2022-08-19T03:04:40.849Z,100.00
2022-08-19T03:05:47.033Z,100.00
2022-08-19T03:07:07.128Z,100.00
2022-08-19T03:08:14.567Z,100.00
2022-08-19T03:09:18.080Z,100.00
2022-08-19T03:10:20.261Z,100.00
2022-08-19T03:11:31.462Z,100.00
2022-08-19T03:12:37.406Z,100.00
2022-08-19T03:13:39.631Z,100.00
2022-08-19T03:14:42.057Z,100.00
2022-08-19T03:15:46.887Z,100.00
2022-08-19T03:16:51.697Z,100.00
2022-08-19T03:17:53.918Z,100.00
2022-08-19T03:19:00.015Z,100.00
2022-08-19T03:20:02.395Z,100.00
2022-08-19T03:21:05.451Z,100.00
2022-08-19T03:22:08.757Z,100.00
2022-08-19T03:23:13.423Z,100.00
2022-08-19T03:24:16.820Z,100.00
2022-08-19T03:25:19.012Z,100.00
2022-08-19T03:26:21.343Z,100.00
2022-08-19T03:27:23.533Z,100.00
2022-08-19T03:28:30.573Z,100.00
2022-08-19T03:29:33.166Z,100.00
2022-08-19T03:31:41.442Z,100.00
2022-08-19T03:32:33.246Z,100.00
2022-08-19T03:33:36.343Z,100.00
2022-08-19T03:34:38.877Z,100.00
2022-08-19T03:35:41.037Z,100.00
2022-08-19T03:36:43.276Z,100.00
2022-08-19T03:37:45.516Z,100.00
2022-08-19T03:38:50.717Z,100.00
2022-08-19T03:39:58.564Z,100.00
2022-08-19T03:41:04.610Z,100.00
2022-08-19T03:42:31.930Z,100.00
2022-08-19T03:43:29.552Z,100.00
2022-08-19T03:44:33.400Z,100.00
2022-08-19T03:45:35.560Z,100.00
2022-08-19T03:46:37.808Z,100.00
2022-08-19T03:47:44.538Z,100.00
2022-08-19T03:48:48.099Z,100.00
2022-08-19T03:49:50.374Z,100.00
2022-08-19T03:50:52.548Z,100.00
2022-08-19T03:51:56.946Z,100.00
2022-08-19T03:52:59.092Z,100.00
2022-08-19T03:54:04.287Z,100.00
2022-08-19T03:55:07.055Z,100.00
2022-08-19T03:56:11.089Z,100.00
2022-08-19T03:57:13.364Z,100.00
2022-08-19T03:58:15.523Z,100.00
2022-08-19T03:59:22.318Z,100.00
2022-08-19T04:00:24.490Z,100.00
2022-08-19T04:01:34.745Z,100.00
2022-08-19T04:02:37.468Z,100.00
2022-08-19T04:03:40.011Z,100.00
2022-08-19T04:04:44.157Z,100.00
2022-08-19T04:05:47.616Z,100.00
2022-08-19T04:06:51.664Z,100.00
2022-08-19T04:07:53.886Z,100.00
2022-08-19T04:08:58.842Z,100.00
2022-08-19T04:10:01.260Z,100.00
2022-08-19T04:11:08.875Z,100.00
2022-08-19T04:12:11.058Z,100.00
2022-08-19T04:13:13.606Z,100.00
2022-08-19T04:14:20.178Z,100.00
2022-08-19T04:15:22.339Z,100.00
2022-08-19T04:16:35.314Z,100.00
2022-08-19T04:17:37.573Z,100.00
2022-08-19T04:18:41.191Z,100.00
2022-08-19T04:19:43.974Z,100.00
2022-08-19T04:21:59.600Z,100.00
2022-08-19T04:23:01.846Z,100.00
2022-08-19T04:24:05.137Z,100.00
2022-08-19T04:25:07.547Z,100.00
2022-08-19T04:26:15.138Z,100.00
2022-08-19T04:27:17.503Z,100.00
2022-08-19T04:28:19.723Z,100.00
2022-08-19T04:29:26.358Z,100.00
2022-08-19T04:30:28.706Z,100.00
2022-08-19T04:31:36.825Z,100.00
2022-08-19T04:32:39.699Z,100.00
2022-08-19T04:33:42.527Z,100.00
2022-08-19T04:35:03.262Z,100.00
2022-08-19T04:36:07.326Z,100.00
2022-08-19T04:37:13.649Z,100.00
2022-08-19T04:38:18.168Z,100.00
2022-08-19T04:39:47.283Z,100.00
2022-08-19T04:41:10.757Z,100.00
2022-08-19T04:42:32.450Z,100.00
2022-08-19T04:43:35.990Z,100.00
2022-08-19T04:44:38.966Z,100.00
2022-08-19T04:45:48.766Z,100.00
2022-08-19T04:46:52.281Z,100.00
2022-08-19T04:48:19.793Z,100.00
2022-08-19T04:49:25.807Z,100.00
2022-08-19T04:50:28.042Z,100.00
2022-08-19T04:51:32.223Z,100.00
2022-08-19T04:52:35.077Z,100.00
2022-08-19T04:53:38.835Z,100.00
2022-08-19T04:54:41.348Z,100.00
2022-08-19T04:55:43.854Z,100.00
2022-08-19T04:56:46.036Z,100.00
2022-08-19T04:57:49.040Z,100.00
2022-08-19T04:58:54.473Z,100.00
2022-08-19T04:59:58.360Z,100.00
2022-08-19T05:01:01.435Z,100.00
2022-08-19T05:02:05.114Z,100.00
2022-08-19T05:03:08.294Z,100.00
2022-08-19T05:04:11.108Z,100.00
2022-08-19T05:05:14.535Z,100.00
2022-08-19T05:06:20.359Z,100.00
2022-08-19T05:07:22.574Z,100.00
2022-08-19T05:08:31.469Z,100.00
2022-08-19T05:09:57.818Z,100.00
2022-08-19T05:10:58.389Z,100.00
2022-08-19T05:12:01.354Z,100.00
2022-08-19T05:13:04.085Z,100.00
2022-08-19T05:14:10.183Z,100.00
2022-08-19T05:15:12.724Z,100.00
2022-08-19T05:16:16.807Z,100.00
2022-08-19T05:17:27.911Z,100.00
2022-08-19T05:18:49.941Z,100.00
2022-08-19T05:20:10.625Z,100.00
2022-08-19T05:21:34.281Z,100.00
2022-08-19T05:22:36.806Z,100.00
2022-08-19T05:23:39.861Z,100.00
2022-08-19T05:25:02.392Z,100.00
2022-08-19T05:26:05.141Z,100.00
2022-08-19T05:27:08.353Z,100.00
2022-08-19T05:28:10.834Z,100.00
2022-08-19T05:29:17.530Z,100.00
2022-08-19T05:30:24.399Z,100.00
2022-08-19T05:31:43.225Z,100.00
2022-08-19T05:32:45.731Z,100.00
2022-08-19T05:33:48.771Z,100.00
2022-08-19T05:34:51.161Z,100.00
2022-08-19T05:35:53.560Z,100.00
2022-08-19T05:36:58.649Z,100.00
2022-08-19T05:38:01.016Z,100.00
2022-08-19T05:39:04.725Z,100.00
2022-08-19T05:40:07.933Z,100.00
2022-08-19T05:41:11.502Z,100.00
2022-08-19T05:42:13.996Z,100.00
2022-08-19T05:43:16.765Z,100.00
2022-08-19T05:44:21.029Z,100.00
2022-08-19T05:45:23.383Z,100.00
2022-08-19T05:46:27.941Z,100.00
2022-08-19T05:47:30.786Z,100.00
2022-08-19T05:48:36.842Z,100.00
2022-08-19T05:49:40.282Z,100.00
2022-08-19T05:50:42.862Z,100.00
2022-08-19T05:51:47.225Z,100.00
2022-08-19T05:52:51.683Z,100.00
2022-08-19T05:53:55.301Z,100.00
2022-08-19T05:54:59.528Z,100.00
2022-08-19T05:56:19.440Z,100.00
2022-08-19T05:57:24.994Z,100.00
2022-08-19T05:58:28.256Z,100.00
2022-08-19T05:59:30.997Z,100.00
2022-08-19T06:00:35.232Z,100.00
2022-08-19T06:01:39.871Z,100.00
2022-08-19T06:02:42.599Z,100.00
2022-08-19T06:03:45.723Z,100.00
2022-08-19T06:04:49.261Z,100.00
2022-08-19T06:05:52.291Z,100.00
2022-08-19T06:06:55.946Z,100.00
2022-08-19T06:08:02.354Z,100.00
2022-08-19T06:09:06.510Z,100.00
2022-08-19T06:10:11.031Z,100.00
2022-08-19T06:11:19.646Z,100.00
2022-08-19T06:12:31.451Z,100.00
2022-08-19T06:13:35.233Z,100.00
2022-08-19T06:14:41.715Z,100.00
2022-08-19T06:15:45.334Z,100.00
2022-08-19T06:16:48.127Z,100.00
2022-08-19T06:17:50.321Z,100.00
2022-08-19T06:18:53.778Z,100.00
2022-08-19T06:19:55.946Z,100.00
2022-08-19T06:20:58.127Z,100.00
2022-08-19T06:22:01.663Z,100.00
2022-08-19T06:23:04.757Z,100.00
2022-08-19T06:24:09.477Z,100.00
2022-08-19T06:25:12.549Z,100.00
2022-08-19T06:26:16.322Z,100.00
2022-08-19T06:27:18.493Z,100.00
2022-08-19T06:28:21.166Z,100.00
2022-08-19T06:29:25.370Z,97.58
2022-08-19T06:30:28.297Z,90.21
2022-08-19T06:31:32.234Z,93.39
2022-08-19T06:32:34.791Z,89.25
2022-08-19T06:33:38.301Z,89.61
2022-08-19T06:34:42.049Z,90.09
2022-08-19T06:36:50.269Z,86.69
2022-08-19T06:37:53.539Z,82.54
2022-08-19T06:38:55.927Z,84.35
2022-08-19T06:39:58.163Z,83.73
2022-08-19T06:41:07.512Z,81.29
2022-08-19T06:42:12.691Z,81.14
2022-08-19T06:43:16.838Z,78.95
2022-08-19T06:44:22.514Z,79.42
2022-08-19T06:45:34.913Z,80.15
2022-08-19T06:46:41.935Z,80.30
2022-08-19T06:47:48.155Z,78.79
2022-08-19T06:48:50.963Z,73.93
2022-08-19T06:50:05.248Z,75.40
2022-08-19T06:51:08.711Z,76.97
2022-08-19T06:52:15.414Z,73.49
2022-08-19T06:53:19.034Z,74.69
2022-08-19T06:54:21.534Z,73.45
2022-08-19T06:55:24.133Z,71.05
2022-08-19T06:56:37.619Z,68.90
2022-08-19T06:57:39.895Z,66.66
2022-08-19T06:58:42.265Z,63.30
2022-08-19T06:59:44.459Z,61.21
2022-08-19T07:00:46.622Z,59.71
2022-08-19T07:01:51.147Z,60.69
2022-08-19T07:02:59.397Z,59.72
2022-08-19T07:04:03.385Z,57.14
2022-08-19T07:05:06.787Z,58.03
2022-08-19T07:06:41.174Z,58.59
2022-08-19T07:07:37.876Z,56.72
2022-08-19T07:08:43.941Z,56.23
2022-08-19T07:09:51.854Z,54.31
2022-08-19T07:11:02.291Z,52.26
2022-08-19T07:12:15.706Z,52.42
2022-08-19T07:13:17.874Z,53.04
2022-08-19T07:14:23.351Z,55.09
2022-08-19T07:15:25.531Z,57.30
2022-08-19T07:16:29.350Z,60.02
2022-08-19T07:17:32.124Z,58.94
2022-08-19T07:18:37.642Z,60.29
2022-08-19T07:19:42.127Z,61.61
2022-08-19T07:20:44.379Z,59.43
2022-08-19T07:21:53.750Z,63.18
2022-08-19T07:22:56.690Z,61.85
2022-08-19T07:24:02.950Z,59.40
2022-08-19T07:25:10.502Z,57.76
2022-08-19T07:26:15.336Z,58.21
2022-08-19T07:27:17.986Z,63.12
2022-08-19T07:28:27.831Z,64.34
2022-08-19T07:29:33.930Z,63.85
2022-08-19T07:30:39.082Z,62.14
2022-08-19T07:31:43.546Z,62.35
2022-08-19T07:32:45.908Z,65.60
2022-08-19T07:33:50.161Z,63.09
2022-08-19T07:34:56.597Z,63.25
2022-08-19T07:35:59.696Z,59.32
2022-08-19T07:37:01.906Z,60.83
2022-08-19T07:38:04.680Z,61.47
2022-08-19T07:39:13.947Z,57.06
2022-08-19T07:40:16.427Z,59.56
2022-08-19T07:41:22.018Z,62.07
2022-08-19T07:42:24.326Z,63.52
2022-08-19T07:43:34.868Z,64.83
2022-08-19T07:45:45.917Z,64.10
2022-08-19T07:46:53.276Z,65.12
2022-08-19T07:47:55.987Z,63.06
2022-08-19T07:48:58.387Z,61.81
2022-08-19T07:50:00.629Z,60.07
2022-08-19T07:51:05.218Z,59.48
2022-08-19T07:52:09.830Z,64.00
2022-08-19T07:53:13.297Z,62.31
2022-08-19T07:54:15.579Z,63.47
2022-08-19T07:55:41.080Z,61.92
2022-08-19T07:56:44.013Z,59.14
2022-08-19T07:57:46.222Z,58.86
2022-08-19T07:58:51.550Z,58.03
2022-08-19T07:59:53.833Z,60.03
2022-08-19T08:00:56.146Z,58.15
2022-08-19T08:02:01.413Z,55.67
2022-08-19T08:03:03.633Z,53.45
2022-08-19T08:04:24.509Z,50.47
2022-08-19T08:05:45.164Z,52.14
2022-08-19T08:07:05.881Z,52.35
2022-08-19T08:08:44.429Z,50.16
2022-08-19T08:09:50.658Z,46.38
2022-08-19T08:10:54.601Z,44.48
2022-08-19T08:12:13.310Z,43.83
2022-08-19T08:13:27.368Z,43.86
2022-08-19T08:14:39.626Z,44.85
2022-08-19T08:15:46.384Z,44.00
2022-08-19T08:16:51.138Z,44.19
2022-08-19T08:17:53.328Z,42.22
2022-08-19T08:18:55.572Z,40.62
2022-08-19T08:19:58.901Z,41.73
2022-08-19T08:21:01.069Z,41.28
2022-08-19T08:22:04.481Z,40.50
2022-08-19T08:23:26.070Z,40.10
2022-08-19T08:24:31.646Z,39.20
2022-08-19T08:25:34.553Z,38.54
2022-08-19T08:26:37.916Z,41.10
2022-08-19T08:27:50.943Z,44.58
2022-08-19T08:28:57.508Z,45.09
2022-08-19T08:29:59.689Z,44.72
2022-08-19T08:31:09.494Z,44.99
2022-08-19T08:32:13.984Z,44.52
2022-08-19T08:33:33.399Z,44.18
2022-08-19T08:34:37.974Z,43.85
2022-08-19T08:35:42.868Z,45.31
2022-08-19T08:36:46.859Z,45.29
2022-08-19T08:37:51.412Z,44.12
2022-08-19T08:40:11.306Z,43.86
2022-08-19T08:41:47.370Z,43.14
2022-08-19T08:43:22.340Z,42.69
2022-08-19T08:44:39.091Z,40.62
2022-08-19T08:45:55.953Z,40.87
2022-08-19T08:47:04.578Z,42.17
2022-08-19T08:48:24.158Z,39.71
2022-08-19T08:49:29.285Z,40.05
2022-08-19T08:50:42.940Z,39.17
2022-08-19T08:51:59.648Z,39.06
2022-08-19T08:53:05.582Z,40.11
2022-08-19T08:54:12.739Z,39.66
2022-08-19T08:55:21.699Z,39.42
2022-08-19T08:56:24.046Z,39.97
2022-08-19T08:57:38.561Z,40.19
2022-08-19T08:58:59.137Z,40.49
2022-08-19T09:00:06.861Z,41.95
2022-08-19T09:01:18.138Z,43.14
2022-08-19T09:02:20.681Z,43.32
2022-08-19T09:03:26.279Z,42.78
2022-08-19T09:04:29.344Z,41.56
2022-08-19T09:05:48.558Z,43.72
2022-08-19T09:07:34.933Z,44.05
2022-08-19T09:08:51.357Z,43.26
2022-08-19T09:10:19.308Z,41.60
2022-08-19T09:11:44.645Z,41.20
2022-08-19T09:13:09.511Z,40.16
2022-08-19T09:14:34.992Z,40.80
2022-08-19T09:15:45.396Z,39.65
2022-08-19T09:16:50.498Z,39.13
2022-08-19T09:17:52.853Z,38.51
2022-08-19T09:18:59.071Z,38.03
2022-08-19T09:20:17.026Z,37.55
2022-08-19T09:21:25.736Z,37.05
2022-08-19T09:22:33.115Z,35.85
2022-08-19T09:23:38.420Z,36.66
2022-08-19T09:24:41.767Z,37.36
2022-08-19T09:25:45.247Z,36.21
2022-08-19T09:26:52.504Z,34.92
2022-08-19T09:28:02.781Z,33.56
2022-08-19T09:29:06.720Z,32.12
2022-08-19T09:30:11.832Z,32.70
2022-08-19T09:31:24.095Z,32.70
2022-08-19T09:32:27.466Z,32.19
2022-08-19T09:33:30.138Z,31.21
2022-08-19T09:34:38.054Z,31.72
2022-08-19T09:35:52.917Z,32.70
2022-08-19T09:36:59.134Z,31.78
2022-08-19T09:38:01.439Z,31.93
2022-08-19T09:39:16.109Z,32.42
2022-08-19T09:40:19.587Z,32.27
2022-08-19T09:41:24.838Z,32.87
2022-08-19T09:42:35.155Z,32.08
2022-08-19T09:43:44.504Z,31.54
2022-08-19T09:44:50.144Z,32.93
2022-08-19T09:45:53.383Z,34.37
2022-08-19T09:46:55.592Z,35.89
2022-08-19T09:47:57.918Z,34.30
2022-08-19T09:49:03.002Z,34.96
2022-08-19T09:50:12.083Z,34.52
2022-08-19T09:51:22.722Z,34.41
2022-08-19T09:52:25.648Z,33.61
2022-08-19T09:53:36.448Z,31.50
2022-08-19T09:54:40.197Z,30.79
2022-08-19T09:55:46.603Z,30.51
2022-08-19T09:56:48.928Z,31.01
2022-08-19T09:57:51.135Z,31.38
2022-08-19T09:58:53.359Z,31.19
2022-08-19T09:59:55.683Z,31.89
2022-08-19T10:01:00.371Z,31.12
2022-08-19T10:02:03.638Z,31.05
2022-08-19T10:03:07.035Z,30.58
2022-08-19T10:04:19.818Z,29.87
2022-08-19T10:05:43.048Z,30.42
2022-08-19T10:06:45.931Z,30.84
2022-08-19T10:07:48.870Z,29.46
2022-08-19T10:08:52.614Z,30.55
2022-08-19T10:09:55.393Z,30.16
2022-08-19T10:10:58.975Z,28.84
2022-08-19T10:12:02.504Z,29.49
2022-08-19T10:13:04.995Z,30.44
2022-08-19T10:14:08.002Z,31.82
2022-08-19T10:15:10.643Z,33.56
2022-08-19T10:16:16.863Z,31.70
2022-08-19T10:17:20.794Z,31.53
2022-08-19T10:18:26.332Z,31.00
2022-08-19T10:19:33.386Z,30.04
2022-08-19T10:20:36.682Z,29.82
2022-08-19T10:21:41.275Z,29.63
2022-08-19T10:22:44.354Z,28.78
2022-08-19T10:23:49.426Z,28.63
2022-08-19T10:24:53.527Z,29.56
2022-08-19T10:25:55.714Z,29.31
2022-08-19T10:26:59.777Z,28.27
2022-08-19T10:28:02.284Z,27.80
2022-08-19T10:29:05.969Z,28.00
2022-08-19T10:30:12.394Z,29.73
2022-08-19T10:31:20.382Z,28.90
2022-08-19T10:32:46.436Z,29.78
2022-08-19T10:33:53.889Z,30.12
2022-08-19T10:34:57.409Z,28.40
2022-08-19T10:36:01.461Z,29.06
2022-08-19T10:37:06.586Z,27.82
2022-08-19T10:38:13.428Z,29.73
2022-08-19T10:39:15.731Z,28.82
2022-08-19T10:40:17.990Z,28.64
2022-08-19T10:41:24.040Z,27.30
2022-08-19T10:42:26.225Z,28.93
2022-08-19T10:43:28.374Z,28.50
2022-08-19T10:44:32.619Z,29.47
2022-08-19T10:45:34.958Z,31.04
2022-08-19T10:46:46.080Z,32.13
2022-08-19T10:47:50.591Z,32.84
2022-08-19T10:48:53.460Z,32.08
2022-08-19T10:50:15.398Z,33.13
2022-08-19T10:51:37.067Z,31.18
2022-08-19T10:52:50.811Z,30.49
2022-08-19T10:53:53.291Z,30.17
2022-08-19T10:55:14.202Z,28.82
2022-08-19T10:56:35.202Z,27.89
2022-08-19T10:57:59.449Z,28.19
2022-08-19T10:59:00.039Z,27.27
2022-08-19T11:00:02.315Z,29.02
2022-08-19T11:01:05.037Z,30.84
2022-08-19T11:02:11.024Z,30.26
2022-08-19T11:03:13.568Z,32.08
2022-08-19T11:04:18.447Z,31.58
2022-08-19T11:05:20.609Z,32.21
2022-08-19T11:06:26.825Z,31.64
2022-08-19T11:07:29.001Z,31.91
2022-08-19T11:08:32.116Z,31.67
2022-08-19T11:09:41.544Z,30.17
2022-08-19T11:10:43.757Z,31.15
2022-08-19T11:11:54.242Z,30.76
2022-08-19T11:12:57.543Z,29.40
2022-08-19T11:13:59.779Z,27.54
2022-08-19T11:15:02.529Z,27.26
2022-08-19T11:16:14.225Z,26.00
2022-08-19T11:17:16.780Z,26.43
2022-08-19T11:18:18.971Z,26.27
2022-08-19T11:19:21.394Z,25.63
2022-08-19T11:20:24.565Z,25.11
2022-08-19T11:21:33.942Z,24.48
2022-08-19T11:22:40.932Z,24.22
2022-08-19T11:23:44.902Z,23.02
2022-08-19T11:24:47.103Z,23.16
2022-08-19T11:25:50.419Z,22.54
2022-08-19T11:26:58.584Z,22.74
2022-08-19T11:28:00.743Z,23.34
2022-08-19T11:29:05.454Z,23.83
2022-08-19T11:30:08.637Z,25.51
2022-08-19T11:31:18.775Z,26.43
2022-08-19T11:32:21.095Z,25.00
2022-08-19T11:33:23.311Z,25.13
2022-08-19T11:34:28.556Z,24.76
2022-08-19T11:35:30.812Z,26.02
2022-08-19T11:36:33.571Z,27.06
2022-08-19T11:37:38.995Z,25.94
2022-08-19T11:38:41.209Z,24.60
2022-08-19T11:39:43.435Z,25.48
2022-08-19T11:40:59.131Z,25.67
2022-08-19T11:42:03.682Z,25.59
2022-08-19T11:43:05.850Z,24.85
2022-08-19T11:44:10.901Z,24.38
2022-08-19T11:45:14.872Z,23.38
2022-08-19T11:46:18.001Z,22.90
2022-08-19T11:47:20.405Z,25.04
2022-08-19T11:48:23.576Z,24.93
2022-08-19T11:49:25.785Z,24.56
2022-08-19T11:50:28.072Z,25.85
2022-08-19T11:51:31.911Z,26.20
2022-08-19T11:52:34.402Z,25.07
2022-08-19T11:53:37.055Z,25.70
2022-08-19T11:54:39.417Z,26.13
2022-08-19T11:55:44.199Z,26.65
2022-08-19T11:56:47.354Z,25.61
2022-08-19T11:57:49.626Z,26.14
2022-08-19T11:58:53.159Z,25.79
2022-08-19T11:59:55.313Z,25.11
2022-08-19T12:00:57.730Z,24.58
2022-08-19T12:02:00.177Z,24.28
2022-08-19T12:03:02.766Z,25.73
2022-08-19T12:04:06.183Z,24.41
2022-08-19T12:05:12.204Z,24.38
2022-08-19T12:06:19.919Z,23.58
2022-08-19T12:07:22.118Z,23.15
2022-08-19T12:08:24.288Z,23.20
2022-08-19T12:09:26.796Z,24.15
2022-08-19T12:10:33.928Z,24.45
2022-08-19T12:11:37.816Z,25.32
2022-08-19T12:12:43.603Z,27.00
2022-08-19T12:13:46.800Z,25.69
2022-08-19T12:14:48.974Z,25.90
2022-08-19T12:15:51.282Z,25.34
2022-08-19T12:16:53.528Z,26.88
2022-08-19T12:17:58.445Z,27.06
2022-08-19T12:19:04.798Z,27.92
2022-08-19T12:20:09.755Z,27.60
2022-08-19T12:21:14.518Z,25.92
2022-08-19T12:22:16.682Z,23.95
2022-08-19T12:23:18.941Z,23.33
2022-08-19T12:24:24.143Z,22.57
2022-08-19T12:25:26.528Z,22.74
2022-08-19T12:26:30.537Z,22.42
2022-08-19T12:27:40.357Z,23.33
2022-08-19T12:28:44.124Z,23.89
2022-08-19T12:29:46.293Z,25.88
2022-08-19T12:30:51.013Z,25.25
2022-08-19T12:31:53.170Z,25.86
2022-08-19T12:32:55.591Z,26.58
2022-08-19T12:33:58.030Z,26.82
2022-08-19T12:35:00.374Z,28.82
2022-08-19T12:36:05.517Z,28.32
2022-08-19T12:37:08.535Z,27.97
2022-08-19T12:38:11.848Z,28.00
2022-08-19T12:39:14.010Z,27.70
2022-08-19T12:40:18.936Z,28.44
2022-08-19T12:41:23.252Z,27.50
2022-08-19T12:42:25.645Z,27.08
2022-08-19T12:43:31.287Z,26.66
2022-08-19T12:44:33.850Z,29.04
2022-08-19T12:45:37.059Z,30.12
2022-08-19T12:46:40.229Z,29.37
2022-08-19T12:47:45.343Z,28.04
2022-08-19T12:48:54.088Z,27.63
2022-08-19T12:49:57.895Z,28.67
2022-08-19T12:51:00.684Z,27.83
2022-08-19T12:52:03.871Z,28.27
2022-08-19T12:53:06.151Z,28.08
2022-08-19T12:54:08.458Z,28.02
2022-08-19T12:55:12.021Z,28.56
2022-08-19T12:56:15.690Z,29.49
2022-08-19T12:57:17.882Z,29.57
2022-08-19T12:58:22.272Z,28.84
2022-08-19T12:59:28.398Z,28.58
2022-08-19T13:00:33.770Z,28.33
2022-08-19T13:01:36.122Z,28.08
2022-08-19T13:02:39.816Z,27.32
2022-08-19T13:03:42.393Z,27.79
2022-08-19T13:04:44.546Z,27.90
2022-08-19T13:05:46.776Z,27.42
2022-08-19T13:06:49.043Z,26.40
2022-08-19T13:07:53.617Z,26.83
2022-08-19T13:08:59.510Z,27.55
2022-08-19T13:10:02.429Z,27.07
2022-08-19T13:11:14.150Z,27.75
2022-08-19T13:12:16.387Z,27.17
2022-08-19T13:13:18.705Z,27.77
2022-08-19T13:14:21.038Z,27.72
2022-08-19T13:15:24.558Z,27.27
2022-08-19T13:16:28.591Z,28.49
2022-08-19T13:17:30.749Z,27.71
2022-08-19T13:18:33.063Z,27.61
2022-08-19T13:19:37.482Z,27.35
2022-08-19T13:20:41.645Z,28.70
2022-08-19T13:21:43.851Z,27.61
2022-08-19T13:22:47.682Z,27.29
2022-08-19T13:23:51.106Z,27.83
2022-08-19T13:24:53.833Z,29.35
2022-08-19T13:26:00.710Z,29.17
2022-08-19T13:27:03.186Z,27.68
2022-08-19T13:28:07.413Z,27.20
2022-08-19T13:29:28.160Z,27.99
2022-08-19T13:30:48.936Z,28.31
2022-08-19T13:32:09.406Z,28.25
2022-08-19T13:33:16.465Z,30.11
2022-08-19T13:34:22.006Z,30.09
2022-08-19T13:35:24.169Z,29.45
2022-08-19T13:36:26.433Z,27.67
2022-08-19T13:37:43.773Z,28.95
2022-08-19T13:38:46.297Z,30.06
2022-08-19T13:39:48.552Z,29.27
2022-08-19T13:40:53.379Z,30.99
2022-08-19T13:41:56.116Z,30.49
2022-08-19T13:42:58.381Z,29.97
2022-08-19T13:44:02.776Z,29.03
2022-08-19T13:45:07.400Z,28.94
2022-08-19T13:46:14.873Z,29.50
2022-08-19T13:47:17.322Z,28.52
2022-08-19T13:48:19.695Z,27.93
2022-08-19T13:49:24.075Z,28.45
2022-08-19T13:50:29.964Z,30.57
2022-08-19T13:51:32.129Z,30.90
2022-08-19T13:52:34.307Z,30.86
2022-08-19T13:53:47.382Z,29.48
2022-08-19T13:54:50.210Z,29.05
2022-08-19T13:55:54.466Z,29.20
2022-08-19T13:56:56.700Z,28.98
2022-08-19T13:58:02.715Z,29.15
2022-08-19T13:59:04.956Z,29.11
2022-08-19T14:00:13.444Z,28.31